Time;durP1;ratioP1;P1;durP2;ratioP2;P2;SDS_P1;SDS_P2;PMS_P1;PMS_P2;Temp;Humidity;BMP_temperature;BMP_pressure;BME280_temperature;BME280_humidity;BME280_pressure;Samples;Min_cycle;Max_cycle;Signal;HPM_P1;HPM_P2
2024/01/26 00:01:55;;;;;;;57.88;20.38;;;8.60;99.90;;;;;;5019926;28;20045;-89
2024/01/26 00:04:21;;;;;;;56.08;21.75;;;8.30;99.90;;;;;;4997162;28;20041;-89
2024/01/26 00:06:48;;;;;;;57.20;21.50;;;8.30;99.90;;;;;;4998846;28;20095;-88
2024/01/26 00:09:15;;;;;;;59.03;20.02;;;9.00;99.90;;;;;;5016517;28;20037;-88
2024/01/26 00:11:42;;;;;;;58.75;22.05;;;8.30;99.90;;;;;;5001999;28;20030;-89
2024/01/26 00:14:08;;;;;;;59.58;21.75;;;8.40;99.90;;;;;;5028704;28;20033;-89
2024/01/26 00:16:36;;;;;;;65.45;22.58;;;8.80;99.90;;;;;;5029878;28;20156;-89
2024/01/26 00:19:03;;;;;;;61.00;21.95;;;8.30;99.90;;;;;;5012246;28;20049;-89
2024/01/26 00:21:29;;;;;;;60.47;22.33;;;8.80;99.90;;;;;;5033437;28;20092;-89
2024/01/26 00:23:55;;;;;;;67.60;23.75;;;9.00;99.90;;;;;;5037571;28;20045;-89
2024/01/26 00:26:20;;;;;;;73.68;25.15;;;8.50;99.90;;;;;;5037740;28;20037;-89
2024/01/26 00:28:46;;;;;;;66.65;22.80;;;8.70;99.90;;;;;;5013862;28;20131;-88
2024/01/26 00:31:18;;;;;;;64.93;22.92;;;8.70;99.90;;;;;;5035282;28;20044;-89
2024/01/26 00:33:45;;;;;;;62.67;22.60;;;8.70;99.90;;;;;;5012565;28;20497;-89
2024/01/26 00:36:11;;;;;;;67.85;23.27;;;8.60;99.90;;;;;;5015168;28;20501;-89
2024/01/26 00:38:37;;;;;;;67.03;23.65;;;8.60;99.90;;;;;;4991556;28;20036;-89
2024/01/26 00:41:03;;;;;;;65.57;24.58;;;8.60;99.90;;;;;;5011665;28;20042;-90
2024/01/26 00:43:28;;;;;;;69.10;24.55;;;8.60;99.90;;;;;;5002171;28;20088;-88
2024/01/26 00:45:54;;;;;;;66.63;24.30;;;8.60;99.90;;;;;;4992449;28;20072;-88
2024/01/26 00:48:20;;;;;;;64.38;23.52;;;9.20;99.90;;;;;;5023045;28;20045;-89
2024/01/26 00:50:49;;;;;;;61.72;24.10;;;8.60;99.90;;;;;;5031781;28;20447;-88
2024/01/26 00:53:16;;;;;;;63.95;23.83;;;8.60;99.90;;;;;;4998499;28;20121;-89
2024/01/26 00:55:42;;;;;;;64.60;23.65;;;9.20;99.90;;;;;;5000757;28;20164;-88
2024/01/26 00:58:07;;;;;;;64.70;24.55;;;9.40;99.90;;;;;;5010408;28;20067;-89
2024/01/26 01:00:33;;;;;;;60.15;22.77;;;8.80;99.90;;;;;;5024496;28;20032;-89
2024/01/26 01:02:59;;;;;;;58.70;22.20;;;8.70;99.90;;;;;;5012154;28;20494;-88
2024/01/26 01:05:24;;;;;;;66.15;24.20;;;8.80;99.90;;;;;;5017921;28;20489;-89
2024/01/26 01:07:50;;;;;;;63.85;22.42;;;9.20;99.90;;;;;;5017323;28;20041;-88
2024/01/26 01:10:16;;;;;;;63.80;23.55;;;9.10;99.90;;;;;;5004298;28;20037;-89
2024/01/26 01:12:42;;;;;;;64.55;24.35;;;8.90;99.90;;;;;;5015258;28;20037;-89
2024/01/26 01:15:12;;;;;;;74.13;26.40;;;8.90;99.90;;;;;;5015667;28;20073;-89
2024/01/26 01:17:39;;;;;;;67.00;24.70;;;8.90;99.90;;;;;;4999047;28;20037;-89
2024/01/26 01:20:08;;;;;;;56.92;22.58;;;9.40;99.90;;;;;;5015493;28;20436;-88
2024/01/26 01:22:34;;;;;;;54.00;22.75;;;8.90;99.90;;;;;;5012851;28;20043;-89
2024/01/26 01:24:59;;;;;;;46.70;21.17;;;9.30;99.90;;;;;;5001587;28;20124;-88
2024/01/26 01:27:25;;;;;;;49.38;21.70;;;8.90;99.90;;;;;;5017532;28;20069;-89
2024/01/26 01:29:51;;;;;;;45.58;19.00;;;9.00;99.90;;;;;;4994178;28;20045;-88
2024/01/26 01:32:16;;;;;;;48.88;20.02;;;9.30;99.90;;;;;;5032375;28;20073;-89
2024/01/26 01:34:43;;;;;;;45.00;20.23;;;9.00;99.90;;;;;;5000248;28;20105;-88
2024/01/26 01:37:09;;;;;;;42.30;19.00;;;8.90;99.90;;;;;;5014924;28;20041;-89
2024/01/26 01:39:36;;;;;;;44.63;20.30;;;9.00;99.90;;;;;;5029576;28;20069;-89
2024/01/26 01:42:03;;;;;;;44.47;19.35;;;8.90;99.90;;;;;;5028253;28;20049;-88
2024/01/26 01:44:30;;;;;;;38.30;18.70;;;9.00;99.90;;;;;;5022150;28;20041;-89
2024/01/26 01:46:56;;;;;;;42.15;20.33;;;9.20;99.90;;;;;;5015768;28;20052;-89
2024/01/26 01:49:22;;;;;;;39.60;19.05;;;9.00;99.90;;;;;;5030254;28;20397;-89
2024/01/26 01:51:52;;;;;;;42.80;20.05;;;9.00;99.90;;;;;;5013869;28;20124;-88
2024/01/26 01:54:19;;;;;;;40.53;18.52;;;9.00;99.90;;;;;;4998667;28;20045;-89
2024/01/26 01:56:46;;;;;;;42.63;19.90;;;9.20;99.90;;;;;;4998246;28;20040;-88
2024/01/26 01:59:14;;;;;;;35.17;18.85;;;9.00;99.90;;;;;;5018605;28;20032;-89
2024/01/26 02:01:39;;;;;;;38.25;18.30;;;9.00;99.90;;;;;;5026329;28;20037;-89
2024/01/26 02:04:05;;;;;;;33.88;17.75;;;9.00;99.90;;;;;;5014377;28;20175;-89
2024/01/26 02:06:31;;;;;;;34.38;18.75;;;9.40;99.90;;;;;;5035904;28;20029;-88
2024/01/26 02:08:56;;;;;;;32.40;18.38;;;9.40;99.90;;;;;;5017420;28;20044;-88
2024/01/26 02:11:23;;;;;;;35.38;18.48;;;9.30;99.90;;;;;;5033013;28;20041;-89
2024/01/26 02:13:48;;;;;;;33.88;19.27;;;9.40;99.90;;;;;;5037893;28;20041;-88
2024/01/26 02:16:14;;;;;;;31.90;18.77;;;9.30;99.90;;;;;;5017726;28;20034;-90
2024/01/26 02:18:40;;;;;;;31.65;18.50;;;9.20;99.90;;;;;;4995047;28;20098;-89
2024/01/26 02:21:06;;;;;;;32.58;19.98;;;9.40;99.90;;;;;;5025024;28;20034;-89
2024/01/26 02:23:31;;;;;;;31.60;18.50;;;9.20;99.90;;;;;;5032957;28;20076;-88
2024/01/26 02:25:57;;;;;;;32.58;18.77;;;9.20;99.90;;;;;;5014730;28;20099;-88
2024/01/26 02:28:23;;;;;;;34.92;19.08;;;9.20;99.90;;;;;;5004635;28;20501;-88
2024/01/26 02:30:49;;;;;;;33.60;19.30;;;9.20;99.90;;;;;;5001636;28;20416;-89
2024/01/26 02:33:14;;;;;;;32.15;21.17;;;9.20;99.90;;;;;;5015932;28;20511;-90
2024/01/26 02:35:40;;;;;;;29.65;19.10;;;9.40;99.90;;;;;;5010222;28;20076;-90
2024/01/26 02:38:06;;;;;;;32.75;19.42;;;9.30;99.90;;;;;;4989061;28;20111;-88
2024/01/26 02:40:31;;;;;;;32.67;19.60;;;9.30;99.90;;;;;;5035133;28;20037;-89
2024/01/26 02:42:57;;;;;;;33.38;18.58;;;9.50;99.90;;;;;;4990759;28;20087;-89
2024/01/26 02:45:24;;;;;;;32.25;19.52;;;9.30;99.90;;;;;;5017615;28;20076;-87
2024/01/26 02:47:50;;;;;;;32.80;19.90;;;9.50;99.90;;;;;;5012494;28;20025;-86
2024/01/26 02:50:15;;;;;;;33.35;19.67;;;9.30;99.90;;;;;;5014414;28;20084;-87
2024/01/26 02:52:41;;;;;;;34.88;21.02;;;9.20;99.90;;;;;;5033363;28;20033;-87
2024/01/26 02:55:07;;;;;;;33.95;21.05;;;9.70;99.90;;;;;;5000556;28;20382;-87
2024/01/26 02:57:32;;;;;;;33.00;19.98;;;9.40;99.90;;;;;;5012816;28;20037;-87
2024/01/26 02:59:58;;;;;;;33.08;19.52;;;9.30;99.90;;;;;;5019789;28;20033;-86
2024/01/26 03:02:24;;;;;;;31.40;19.40;;;9.30;99.90;;;;;;4994777;28;20038;-86
2024/01/26 03:04:49;;;;;;;30.35;18.52;;;9.50;99.90;;;;;;5029989;28;20468;-87
2024/01/26 03:07:15;;;;;;;32.65;18.67;;;9.50;99.90;;;;;;5015433;28;20034;-87
2024/01/26 03:09:41;;;;;;;31.30;19.92;;;9.40;99.90;;;;;;5030076;28;20030;-87
2024/01/26 03:12:06;;;;;;;32.10;18.38;;;9.50;99.90;;;;;;5013726;28;20040;-87
2024/01/26 03:14:32;;;;;;;30.58;17.17;;;9.30;99.90;;;;;;5039361;28;20033;-87
2024/01/26 03:16:58;;;;;;;31.20;19.30;;;9.40;99.90;;;;;;4992325;28;20751;-89
2024/01/26 03:19:23;;;;;;;29.45;17.95;;;9.40;99.90;;;;;;5005315;28;20132;-89
2024/01/26 03:21:49;;;;;;;32.17;18.13;;;9.40;99.90;;;;;;5013586;28;20038;-89
2024/01/26 03:24:15;;;;;;;31.50;18.50;;;9.40;99.90;;;;;;5038797;28;20060;-89
2024/01/26 03:26:40;;;;;;;29.73;17.75;;;9.40;99.90;;;;;;5026547;28;20034;-89
2024/01/26 03:29:06;;;;;;;28.98;16.63;;;9.40;99.90;;;;;;5022884;28;20039;-88
2024/01/26 03:31:32;;;;;;;28.23;17.40;;;9.30;99.90;;;;;;5035494;28;20092;-90
2024/01/26 03:33:58;;;;;;;29.60;16.58;;;9.40;99.90;;;;;;5022095;28;20504;-89
2024/01/26 03:36:24;;;;;;;30.42;17.38;;;9.50;99.90;;;;;;5022942;28;20405;-89
2024/01/26 03:38:49;;;;;;;29.60;17.75;;;9.30;99.90;;;;;;5012023;28;20038;-89
2024/01/26 03:41:15;;;;;;;29.52;16.75;;;9.40;99.90;;;;;;5005664;28;20092;-89
2024/01/26 03:43:41;;;;;;;28.73;16.27;;;9.50;99.90;;;;;;5009684;28;20033;-89
2024/01/26 03:46:07;;;;;;;29.75;16.75;;;9.50;99.90;;;;;;5017154;28;20107;-90
2024/01/26 03:48:33;;;;;;;30.30;17.08;;;9.40;99.90;;;;;;4994174;28;20038;-90
2024/01/26 03:50:59;;;;;;;27.25;16.48;;;9.40;99.90;;;;;;5029920;28;20050;-90
2024/01/26 03:53:25;;;;;;;29.20;16.17;;;9.40;99.90;;;;;;4995976;28;20490;-89
2024/01/26 03:55:55;;;;;;;27.65;15.65;;;9.40;99.90;;;;;;4991349;28;20037;-89
2024/01/26 03:58:20;;;;;;;30.80;17.67;;;9.40;99.90;;;;;;5008942;28;20113;-89
2024/01/26 04:00:46;;;;;;;28.85;16.20;;;9.40;99.90;;;;;;5002343;28;20112;-89
2024/01/26 04:03:12;;;;;;;28.95;15.80;;;9.40;99.90;;;;;;5000268;28;20034;-89
2024/01/26 04:05:37;;;;;;;27.27;15.98;;;9.40;99.90;;;;;;4988363;28;20037;-90
2024/01/26 04:08:03;;;;;;;27.70;16.33;;;9.40;99.90;;;;;;4994323;28;20099;-92
2024/01/26 04:10:29;;;;;;;30.35;16.23;;;9.40;99.90;;;;;;5002254;28;20030;-89
2024/01/26 04:12:56;;;;;;;31.45;16.88;;;9.40;99.90;;;;;;5013515;28;20037;-89
2024/01/26 04:15:22;;;;;;;30.27;15.63;;;9.40;99.90;;;;;;4989440;28;20397;-89
2024/01/26 04:17:48;;;;;;;30.23;17.10;;;9.50;99.90;;;;;;5031098;28;20029;-89
2024/01/26 04:20:13;;;;;;;29.25;16.05;;;9.50;99.90;;;;;;5013788;28;20045;-89
2024/01/26 04:22:39;;;;;;;31.75;17.70;;;9.40;99.90;;;;;;5018504;28;20037;-89
2024/01/26 04:25:05;;;;;;;31.48;17.17;;;9.50;99.90;;;;;;5004585;28;20041;-89
2024/01/26 04:27:31;;;;;;;30.02;17.13;;;9.50;99.90;;;;;;5012878;28;20124;-90
2024/01/26 04:29:58;;;;;;;32.60;17.48;;;9.50;99.90;;;;;;5005829;28;20042;-90
2024/01/26 04:32:24;;;;;;;29.80;17.27;;;9.50;99.90;;;;;;4998382;28;20045;-92
2024/01/26 04:34:50;;;;;;;29.27;16.90;;;9.80;99.90;;;;;;4990681;28;20499;-91
2024/01/26 04:37:16;;;;;;;28.13;16.42;;;9.60;99.90;;;;;;5003346;28;20109;-90
2024/01/26 04:39:42;;;;;;;31.73;17.60;;;9.60;99.90;;;;;;5030403;28;20041;-90
2024/01/26 04:42:08;;;;;;;30.05;17.30;;;9.20;99.90;;;;;;5029599;28;20191;-89
2024/01/26 04:44:35;;;;;;;28.88;16.55;;;9.60;99.90;;;;;;5009476;28;20128;-91
2024/01/26 04:47:01;;;;;;;31.55;17.33;;;9.80;99.90;;;;;;5022071;28;20124;-89
2024/01/26 04:49:27;;;;;;;27.65;15.65;;;9.70;99.90;;;;;;5023941;28;20120;-89
2024/01/26 04:51:52;;;;;;;28.73;16.70;;;9.70;99.90;;;;;;5035348;28;20048;-90
2024/01/26 04:54:18;;;;;;;31.55;16.83;;;9.90;99.90;;;;;;5005949;28;20034;-89
2024/01/26 04:56:44;;;;;;;30.50;16.75;;;9.80;99.90;;;;;;4981968;28;20045;-90
2024/01/26 04:59:09;;;;;;;27.48;16.50;;;9.80;99.90;;;;;;4984840;28;20029;-90
2024/01/26 05:01:35;;;;;;;29.65;15.95;;;9.80;99.90;;;;;;5012562;28;20073;-90
2024/01/26 05:04:03;;;;;;;27.17;15.48;;;9.90;99.90;;;;;;5022388;28;20072;-90
2024/01/26 05:06:29;;;;;;;30.40;16.80;;;9.80;99.90;;;;;;5017038;28;20044;-90
2024/01/26 05:08:55;;;;;;;22.25;14.05;;;9.80;99.90;;;;;;4998288;28;20339;-89
2024/01/26 05:11:21;;;;;;;26.25;15.05;;;9.80;99.90;;;;;;5002147;28;20033;-90
2024/01/26 05:13:46;;;;;;;26.90;16.05;;;9.80;99.90;;;;;;5004081;28;20041;-89
2024/01/26 05:16:12;;;;;;;26.92;15.18;;;9.90;99.90;;;;;;5000700;28;20037;-89
2024/01/26 05:18:39;;;;;;;31.20;17.60;;;10.00;99.90;;;;;;5018706;28;20066;-89
2024/01/26 05:21:04;;;;;;;28.55;15.35;;;10.20;99.90;;;;;;4983366;28;20092;-90
2024/01/26 05:23:31;;;;;;;28.98;16.25;;;9.90;99.90;;;;;;5008345;28;20053;-89
2024/01/26 05:25:56;;;;;;;26.67;15.77;;;10.00;99.90;;;;;;5015326;28;20125;-89
2024/01/26 05:28:22;;;;;;;25.27;15.90;;;10.00;99.90;;;;;;4981818;28;20069;-87
2024/01/26 05:30:48;;;;;;;24.63;14.65;;;10.10;99.90;;;;;;5005481;28;20061;-88
2024/01/26 05:33:14;;;;;;;25.10;16.35;;;10.10;99.90;;;;;;4997163;28;20401;-90
2024/01/26 05:35:39;;;;;;;27.60;16.42;;;10.10;99.90;;;;;;5016610;28;20444;-89
2024/01/26 05:38:05;;;;;;;27.48;16.35;;;10.10;99.90;;;;;;5031037;28;20576;-89
2024/01/26 05:40:31;;;;;;;26.92;16.08;;;10.20;99.90;;;;;;5033439;28;20030;-88
2024/01/26 05:42:57;;;;;;;26.83;15.90;;;10.10;99.90;;;;;;5018856;28;20045;-89
2024/01/26 05:45:23;;;;;;;23.98;14.82;;;10.10;99.90;;;;;;4993117;28;20051;-90
2024/01/26 05:47:48;;;;;;;23.95;16.00;;;10.10;99.90;;;;;;5006046;28;20535;-89
2024/01/26 05:50:17;;;;;;;21.98;14.95;;;10.10;99.90;;;;;;5007231;28;20525;-89
2024/01/26 05:52:43;;;;;;;23.42;16.52;;;10.10;99.90;;;;;;5004294;28;20121;-90
2024/01/26 05:55:08;;;;;;;29.45;16.20;;;10.00;99.90;;;;;;5015897;28;20109;-90
2024/01/26 05:57:34;;;;;;;26.02;15.70;;;10.10;99.90;;;;;;5010681;28;20038;-89
2024/01/26 06:00:00;;;;;;;24.08;16.05;;;10.10;99.90;;;;;;5014863;28;20502;-90
2024/01/26 06:02:27;;;;;;;24.42;15.98;;;10.10;99.90;;;;;;5008554;28;20099;-89
2024/01/26 06:04:53;;;;;;;27.05;16.77;;;10.10;99.90;;;;;;4993947;28;20033;-89
2024/01/26 06:07:19;;;;;;;27.33;16.40;;;10.10;99.90;;;;;;4993512;28;20037;-89
2024/01/26 06:09:45;;;;;;;26.83;15.70;;;10.50;99.90;;;;;;5008757;28;20044;-88
2024/01/26 06:12:11;;;;;;;24.67;15.98;;;10.20;99.90;;;;;;4989854;28;20493;-87
2024/01/26 06:14:36;;;;;;;24.73;15.85;;;10.20;99.90;;;;;;4994941;28;20460;-88
2024/01/26 06:17:02;;;;;;;24.83;16.10;;;10.60;99.90;;;;;;5003175;28;20117;-88
2024/01/26 06:19:28;;;;;;;27.48;16.70;;;10.20;99.90;;;;;;4991607;28;20124;-89
2024/01/26 06:21:53;;;;;;;25.02;16.30;;;10.20;99.90;;;;;;4995911;28;20140;-89
2024/01/26 06:24:19;;;;;;;24.98;16.45;;;10.20;99.90;;;;;;5032649;28;20083;-89
2024/01/26 06:26:44;;;;;;;25.00;17.02;;;10.30;99.90;;;;;;5015022;28;20038;-89
2024/01/26 06:29:10;;;;;;;28.60;16.35;;;10.30;99.90;;;;;;5015195;28;20489;-90
2024/01/26 06:31:36;;;;;;;24.38;16.63;;;10.30;99.90;;;;;;4995388;28;20030;-90
2024/01/26 06:34:01;;;;;;;26.83;16.38;;;10.30;99.90;;;;;;5031029;28;20045;-88
2024/01/26 06:36:27;;;;;;;26.90;15.35;;;10.30;99.90;;;;;;5014692;28;20030;-88
2024/01/26 06:38:53;;;;;;;26.75;16.25;;;10.30;99.90;;;;;;4998165;28;20040;-88
2024/01/26 06:41:18;;;;;;;23.40;15.32;;;10.50;99.90;;;;;;5006561;28;20132;-89
2024/01/26 06:43:50;;;;;;;24.10;15.40;;;10.30;99.90;;;;;;5001302;28;20040;-88
2024/01/26 06:46:22;;;;;;;23.05;14.60;;;10.60;99.90;;;;;;5032774;28;20037;-88
2024/01/26 06:48:48;;;;;;;22.02;15.32;;;10.40;99.90;;;;;;5020118;28;20041;-88
2024/01/26 06:51:14;;;;;;;20.98;13.55;;;10.50;99.90;;;;;;5034367;28;20188;-88
2024/01/26 06:53:40;;;;;;;22.35;14.13;;;10.40;99.90;;;;;;5016662;28;20044;-88
2024/01/26 06:56:07;;;;;;;21.20;13.63;;;10.60;99.90;;;;;;5011452;28;20029;-88
2024/01/26 06:58:33;;;;;;;20.95;12.48;;;10.50;99.90;;;;;;5034259;28;20037;-88
2024/01/26 07:00:59;;;;;;;17.98;12.35;;;10.40;99.90;;;;;;5021693;28;20049;-88
2024/01/26 07:03:24;;;;;;;17.58;11.75;;;10.40;99.90;;;;;;5027503;28;20432;-87
2024/01/26 07:05:50;;;;;;;19.58;12.57;;;10.40;99.90;;;;;;5007373;28;20029;-88
2024/01/26 07:08:16;;;;;;;16.73;10.93;;;10.50;99.90;;;;;;5013643;28;20041;-87
2024/01/26 07:10:42;;;;;;;15.95;11.07;;;10.60;99.90;;;;;;5016082;28;20103;-86
2024/01/26 07:13:08;;;;;;;14.40;9.75;;;10.60;99.90;;;;;;5016349;28;20115;-89
2024/01/26 07:15:34;;;;;;;16.35;10.23;;;10.50;99.90;;;;;;4998845;28;20061;-89
2024/01/26 07:18:00;;;;;;;16.52;9.63;;;10.40;99.90;;;;;;5001778;28;20041;-89
2024/01/26 07:20:26;;;;;;;13.93;9.00;;;10.60;99.90;;;;;;5003397;28;20039;-89
2024/01/26 07:22:51;;;;;;;16.15;10.00;;;10.40;99.90;;;;;;4999989;28;20052;-89
2024/01/26 07:25:20;;;;;;;13.48;9.10;;;10.50;99.90;;;;;;5012740;28;20044;-88
2024/01/26 07:27:49;;;;;;;14.50;9.55;;;10.40;99.90;;;;;;5013473;28;20038;-88
2024/01/26 07:30:17;;;;;;;13.85;9.13;;;10.50;99.90;;;;;;5007800;28;20468;-89
2024/01/26 07:32:43;;;;;;;14.48;9.25;;;10.50;99.90;;;;;;5026982;28;20038;-88
2024/01/26 07:35:08;;;;;;;15.18;9.00;;;10.50;99.90;;;;;;5022259;28;20041;-88
2024/01/26 07:37:34;;;;;;;12.32;8.45;;;10.50;99.90;;;;;;5013110;28;20121;-89
2024/01/26 07:40:04;;;;;;;11.93;7.80;;;10.60;99.90;;;;;;4996067;28;20163;-89
2024/01/26 07:42:33;;;;;;;11.18;7.95;;;10.50;99.90;;;;;;5013935;28;20071;-88
2024/01/26 07:44:59;;;;;;;11.52;7.97;;;10.50;99.90;;;;;;4991830;28;20073;-90
2024/01/26 07:47:24;;;;;;;10.88;7.55;;;10.50;99.90;;;;;;5012399;28;20065;-88
2024/01/26 07:49:50;;;;;;;11.40;7.75;;;10.70;99.90;;;;;;4997313;28;20120;-88
2024/01/26 07:52:16;;;;;;;9.63;7.05;;;10.60;99.90;;;;;;5014982;28;20458;-87
2024/01/26 07:54:42;;;;;;;14.38;8.45;;;10.60;99.90;;;;;;5014824;28;20029;-88
2024/01/26 07:57:08;;;;;;;11.23;7.38;;;10.60;99.90;;;;;;5015837;28;20188;-88
2024/01/26 07:59:33;;;;;;;11.95;7.55;;;10.60;99.90;;;;;;5017464;28;20135;-88
2024/01/26 08:01:59;;;;;;;12.10;7.20;;;10.60;99.90;;;;;;4999271;28;20042;-88
2024/01/26 08:04:25;;;;;;;10.93;6.93;;;10.60;99.90;;;;;;5005666;28;20034;-89
2024/01/26 08:06:50;;;;;;;10.75;5.88;;;10.60;99.90;;;;;;5025703;28;20037;-89
2024/01/26 08:09:17;;;;;;;9.00;6.05;;;10.80;99.90;;;;;;5035237;28;20029;-89
2024/01/26 08:11:43;;;;;;;9.27;6.32;;;10.70;99.90;;;;;;5030276;28;20052;-88
2024/01/26 08:14:08;;;;;;;7.80;5.43;;;10.60;99.90;;;;;;5040120;28;20042;-88
2024/01/26 08:16:37;;;;;;;6.90;5.03;;;10.60;99.90;;;;;;5022070;28;20065;-89
2024/01/26 08:19:03;;;;;;;7.97;5.00;;;10.60;99.90;;;;;;5012066;28;20042;-89
2024/01/26 08:21:29;;;;;;;6.13;4.25;;;10.60;99.90;;;;;;5033819;28;20034;-90
2024/01/26 08:23:55;;;;;;;6.10;3.65;;;10.60;99.90;;;;;;5013401;28;20033;-86
2024/01/26 08:26:21;;;;;;;7.50;4.50;;;10.90;99.90;;;;;;5027583;28;20050;-86
2024/01/26 08:28:47;;;;;;;5.30;3.50;;;10.70;99.90;;;;;;5006164;28;20034;-86
2024/01/26 08:31:13;;;;;;;5.65;4.20;;;10.60;99.90;;;;;;5039690;28;20037;-86
2024/01/26 08:33:39;;;;;;;4.65;3.78;;;10.80;99.90;;;;;;5008926;28;20037;-85
2024/01/26 08:36:05;;;;;;;6.15;3.90;;;10.70;99.90;;;;;;5020076;28;20404;-86
2024/01/26 08:38:30;;;;;;;4.70;3.45;;;10.60;99.90;;;;;;5016672;28;20095;-85
2024/01/26 08:40:56;;;;;;;7.80;4.55;;;10.70;99.90;;;;;;5022942;28;20044;-85
2024/01/26 08:43:22;;;;;;;6.60;4.60;;;10.60;99.90;;;;;;5003633;28;20497;-86
2024/01/26 08:45:48;;;;;;;9.32;5.40;;;10.60;99.90;;;;;;5030837;28;20509;-87
2024/01/26 08:48:14;;;;;;;10.73;6.75;;;10.50;99.90;;;;;;5040258;28;20104;-89
2024/01/26 08:50:40;;;;;;;11.80;6.32;;;10.60;99.90;;;;;;5032549;28;20027;-90
2024/01/26 08:53:06;;;;;;;12.45;6.65;;;10.60;99.90;;;;;;5021821;28;20117;-88
2024/01/26 08:55:33;;;;;;;11.85;6.80;;;10.60;99.90;;;;;;5021902;28;20036;-90
2024/01/26 08:57:58;;;;;;;14.52;7.00;;;10.60;99.90;;;;;;4999211;28;20038;-90
2024/01/26 09:00:24;;;;;;;12.57;7.10;;;10.60;99.90;;;;;;5015554;28;20433;-90
2024/01/26 09:02:50;;;;;;;11.95;6.90;;;10.60;99.90;;;;;;5020506;28;20446;-90
2024/01/26 09:05:15;;;;;;;14.25;6.72;;;10.50;99.90;;;;;;5031972;28;20041;-91
2024/01/26 09:07:41;;;;;;;14.38;6.90;;;10.60;99.90;;;;;;5003164;28;20045;-88
2024/01/26 09:10:07;;;;;;;13.55;5.82;;;10.50;99.90;;;;;;5003492;28;20099;-88
2024/01/26 09:12:33;;;;;;;14.00;6.10;;;10.50;99.90;;;;;;5016064;28;20030;-90
2024/01/26 09:14:59;;;;;;;11.75;3.75;;;10.50;99.90;;;;;;5016562;28;20045;-89
2024/01/26 09:17:25;;;;;;;4.60;1.42;;;10.40;99.90;;;;;;5022084;28;20029;-88
2024/01/26 09:19:50;;;;;;;5.28;1.30;;;10.10;99.90;;;;;;5016773;28;20080;-89
2024/01/26 09:22:16;;;;;;;4.40;1.40;;;9.70;99.90;;;;;;5029796;28;20041;-88
2024/01/26 09:24:42;;;;;;;6.20;1.38;;;9.50;99.90;;;;;;4999924;28;20446;-88
2024/01/26 09:27:07;;;;;;;6.97;1.55;;;9.60;99.90;;;;;;5029102;28;20405;-90
2024/01/26 09:29:33;;;;;;;6.50;1.45;;;9.20;99.90;;;;;;4998218;28;20042;-89
2024/01/26 09:31:59;;;;;;;7.40;1.52;;;9.10;99.90;;;;;;4997901;28;20044;-90
2024/01/26 09:34:25;;;;;;;6.97;1.50;;;9.00;99.90;;;;;;4993486;28;20029;-89
2024/01/26 09:36:51;;;;;;;6.00;1.33;;;9.10;99.90;;;;;;4989459;28;20048;-89
2024/01/26 09:39:17;;;;;;;9.20;1.13;;;9.00;99.90;;;;;;5032412;28;20555;-88
2024/01/26 09:41:43;;;;;;;10.02;1.48;;;8.80;99.90;;;;;;5011998;28;20488;-87
2024/01/26 09:44:08;;;;;;;6.35;1.55;;;8.70;99.90;;;;;;5028113;28;20072;-90
2024/01/26 09:46:34;;;;;;;10.05;1.60;;;8.70;99.90;;;;;;5010073;28;20046;-89
2024/01/26 09:49:01;;;;;;;5.65;1.30;;;8.60;99.90;;;;;;4999082;28;20068;-88
2024/01/26 09:51:27;;;;;;;21.88;4.10;;;8.50;99.90;;;;;;4991063;28;20053;-89
2024/01/26 09:53:58;;;;;;;9.70;2.00;;;8.50;99.90;;;;;;5012938;28;20041;-90
2024/01/26 09:56:24;;;;;;;13.65;2.15;;;8.50;99.90;;;;;;4996176;28;20053;-90
2024/01/26 09:58:50;;;;;;;13.63;2.20;;;8.80;99.90;;;;;;5029852;28;20047;-88
2024/01/26 10:01:20;;;;;;;15.98;2.47;;;8.50;99.90;;;;;;5003663;28;20033;-86
2024/01/26 10:03:46;;;;;;;11.85;2.28;;;8.80;99.90;;;;;;4992696;28;20041;-88
2024/01/26 10:06:12;;;;;;;15.48;3.45;;;8.30;99.90;;;;;;4990611;28;20040;-90
2024/01/26 10:08:39;;;;;;;15.40;1.70;;;8.30;99.90;;;;;;4997751;28;20046;-87
2024/01/26 10:11:04;;;;;;;14.70;2.20;;;8.70;99.90;;;;;;5031104;28;20405;-88
2024/01/26 10:13:30;;;;;;;16.27;2.50;;;8.70;99.90;;;;;;4998629;28;20034;-89
2024/01/26 10:16:11;;;;;;;13.82;3.08;;;8.60;99.90;;;;;;5013985;28;20394;-87
2024/01/26 10:18:44;;;;;;;17.17;2.22;;;8.10;99.90;;;;;;4985009;28;20125;-89
2024/01/26 10:21:10;;;;;;;12.90;2.38;;;8.20;99.90;;;;;;5032810;28;20044;-91
2024/01/26 10:23:36;;;;;;;14.40;2.15;;;8.10;99.90;;;;;;5011254;28;20057;-89
2024/01/26 10:26:02;;;;;;;10.32;2.00;;;8.10;99.90;;;;;;5017002;28;20413;-88
2024/01/26 10:28:28;;;;;;;14.10;2.58;;;8.10;99.90;;;;;;4997470;28;20049;-89
2024/01/26 10:30:54;;;;;;;16.65;2.38;;;8.00;99.90;;;;;;5000379;28;20033;-89
2024/01/26 10:33:24;;;;;;;15.23;2.33;;;8.50;99.90;;;;;;5012884;28;20036;-90
2024/01/26 10:36:01;;;;;;;20.38;3.20;;;8.20;99.90;;;;;;5006401;28;20029;-89
2024/01/26 10:38:31;;;;;;;15.18;2.40;;;8.30;99.90;;;;;;5010984;28;20552;-89
2024/01/26 10:41:06;;;;;;;11.48;2.22;;;8.60;99.90;;;;;;5038336;28;20088;-89
2024/01/26 10:43:32;;;;;;;14.20;2.05;;;8.60;99.90;;;;;;5039192;28;20029;-88
2024/01/26 10:45:59;;;;;;;14.80;2.70;;;9.20;99.90;;;;;;4996655;28;20038;-92
2024/01/26 10:48:25;;;;;;;12.55;2.40;;;8.50;99.90;;;;;;5032223;28;20044;-89
2024/01/26 10:50:52;;;;;;;14.63;1.95;;;8.60;99.90;;;;;;4993855;28;20045;-86
2024/01/26 10:53:20;;;;;;;12.55;2.42;;;8.80;99.90;;;;;;4987665;28;20521;-88
2024/01/26 10:55:48;;;;;;;14.05;2.72;;;8.90;99.90;;;;;;5025432;28;20037;-87
2024/01/26 10:58:13;;;;;;;16.10;2.50;;;8.60;99.90;;;;;;5027426;28;20409;-87
2024/01/26 11:00:40;;;;;;;16.75;2.95;;;9.00;99.90;;;;;;5026700;28;20051;-87
2024/01/26 11:03:05;;;;;;;17.08;2.95;;;8.60;99.90;;;;;;5006115;28;20572;-87
2024/01/26 11:05:31;;;;;;;17.27;2.70;;;8.70;99.90;;;;;;4986323;28;20124;-91
2024/01/26 11:08:00;;;;;;;13.85;2.30;;;8.90;99.90;;;;;;5022313;28;20038;-90
2024/01/26 11:10:28;;;;;;;13.75;2.78;;;9.20;99.90;;;;;;5014792;28;20052;-87
2024/01/26 11:13:09;;;;;;;18.02;2.50;;;8.60;99.90;;;;;;5025310;28;20041;-89
2024/01/26 11:15:35;;;;;;;16.20;2.83;;;8.60;99.90;;;;;;5029219;28;20045;-89
2024/01/26 11:18:03;;;;;;;13.43;2.35;;;8.60;99.90;;;;;;5021978;28;20091;-90
2024/01/26 11:20:33;;;;;;;13.10;2.67;;;9.10;99.90;;;;;;5031266;28;20034;-91
2024/01/26 11:23:04;;;;;;;12.45;2.10;;;8.60;99.90;;;;;;5026093;28;20128;-90
2024/01/26 11:25:38;;;;;;;13.77;2.65;;;8.60;99.90;;;;;;5027788;28;20049;-88
2024/01/26 11:28:05;;;;;;;14.13;2.55;;;8.60;99.90;;;;;;5023532;28;20072;-88
2024/01/26 11:30:32;;;;;;;11.23;2.10;;;8.70;99.90;;;;;;5022335;28;20390;-91
2024/01/26 11:32:58;;;;;;;13.07;2.50;;;9.30;99.90;;;;;;4992712;28;20050;-91
2024/01/26 11:35:24;;;;;;;11.32;2.28;;;9.20;99.90;;;;;;4989267;28;20049;-90
2024/01/26 11:37:55;;;;;;;10.63;2.30;;;8.60;99.90;;;;;;5020799;28;20466;-90
2024/01/26 11:40:25;;;;;;;10.40;2.25;;;8.50;99.90;;;;;;5007356;28;20088;-89
2024/01/26 11:42:51;;;;;;;10.35;2.03;;;8.50;99.90;;;;;;4996583;28;20134;-89
2024/01/26 11:45:40;;;;;;;20.35;3.05;;;9.00;99.90;;;;;;5003217;28;20038;-90
2024/01/26 11:48:07;;;;;;;11.30;2.05;;;8.50;99.90;;;;;;5021545;28;20041;-89
2024/01/26 11:50:33;;;;;;;14.25;2.75;;;8.60;99.90;;;;;;5002782;28;20030;-91
2024/01/26 11:52:59;;;;;;;15.80;2.60;;;8.60;99.90;;;;;;4988493;28;20041;-89
2024/01/26 11:55:25;;;;;;;14.75;2.40;;;8.40;99.90;;;;;;5008524;28;20052;-89
2024/01/26 11:57:51;;;;;;;13.93;2.53;;;9.30;99.90;;;;;;4995706;28;20504;-89
2024/01/26 12:00:18;;;;;;;12.85;2.33;;;8.50;99.90;;;;;;5006967;28;20061;-87
2024/01/26 12:02:44;;;;;;;11.30;2.45;;;8.40;99.90;;;;;;4991071;28;20038;-87
2024/01/26 12:05:10;;;;;;;10.32;1.55;;;8.50;99.90;;;;;;5004402;28;20056;-87
2024/01/26 12:07:36;;;;;;;11.57;2.33;;;8.60;99.90;;;;;;5029126;28;20504;-88
2024/01/26 12:10:02;;;;;;;12.55;2.00;;;8.70;99.90;;;;;;5007869;28;20069;-87
2024/01/26 12:12:29;;;;;;;19.10;3.50;;;8.10;99.90;;;;;;5011704;28;20049;-88
2024/01/26 12:14:55;;;;;;;18.80;2.60;;;8.10;99.90;;;;;;5027819;28;20037;-89
2024/01/26 12:17:21;;;;;;;10.63;2.10;;;8.60;99.90;;;;;;5002753;28;20581;-88
2024/01/26 12:19:48;;;;;;;17.35;2.92;;;8.30;99.90;;;;;;4990398;28;20036;-88
2024/01/26 12:22:14;;;;;;;16.60;4.45;;;8.10;99.90;;;;;;5020391;28;20092;-90
2024/01/26 12:24:40;;;;;;;18.52;2.75;;;8.40;99.90;;;;;;5025330;28;20505;-92
2024/01/26 12:27:06;;;;;;;19.38;2.75;;;8.70;99.90;;;;;;4996358;28;20084;-91
2024/01/26 12:29:35;;;;;;;11.43;2.53;;;8.30;99.90;;;;;;4984551;28;20041;-88
2024/01/26 12:32:08;;;;;;;11.60;2.95;;;8.10;99.90;;;;;;4986654;28;20042;-91
2024/01/26 12:34:36;;;;;;;13.98;2.55;;;8.40;99.90;;;;;;5006798;28;20544;-89